METAR Formatted Surface Weather Observation
Issued by NWS

Home | Current Version | Previous Version | Text Only | Print | Product List | Glossary On
Versions: 1 2 3 4 5 6 7 8 9
000
SAUS42 TJSJ 011954
MTRJNR
METAR TJNR 011953Z AUTO 04007KT 10SM FEW034 FEW043 29/26 A3000 RMK
AO2 SLP157 T02940256 $


USA.gov is the U.S. government's official web portal to all federal, state and local government web resources and services.